sensor_id;sensor_type;location;lat;lon;timestamp;pressure;altitude;pressure_sealevel;temperature;humidity
73824;BME280;62154;54.914;73.444;2023-06-26T00:02:20;99589.31;;;11.47;100.00
73824;BME280;62154;54.914;73.444;2023-06-26T00:04:49;99593.44;;;11.56;100.00
73824;BME280;62154;54.914;73.444;2023-06-26T00:07:20;99607.50;;;11.67;100.00
73824;BME280;62154;54.914;73.444;2023-06-26T00:09:49;99581.22;;;11.57;100.00
73824;BME280;62154;54.914;73.444;2023-06-26T00:12:16;99570.66;;;11.42;100.00
73824;BME280;62154;54.914;73.444;2023-06-26T00:14:44;99594.09;;;11.64;100.00
73824;BME280;62154;54.914;73.444;2023-06-26T00:17:11;99600.38;;;11.71;100.00
73824;BME280;62154;54.914;73.444;2023-06-26T00:19:39;99546.00;;;11.46;100.00
73824;BME280;62154;54.914;73.444;2023-06-26T00:22:07;99582.81;;;11.82;100.00
73824;BME280;62154;54.914;73.444;2023-06-26T00:24:34;99594.25;;;11.98;100.00
73824;BME280;62154;54.914;73.444;2023-06-26T00:27:02;99533.81;;;11.76;100.00
73824;BME280;62154;54.914;73.444;2023-06-26T00:29:29;99596.56;;;12.35;100.00
73824;BME280;62154;54.914;73.444;2023-06-26T00:32:00;99568.84;;;12.40;100.00
73824;BME280;62154;54.914;73.444;2023-06-26T00:34:33;99579.22;;;12.79;100.00
73824;BME280;62154;54.914;73.444;2023-06-26T00:37:09;99597.41;;;13.03;100.00
73824;BME280;62154;54.914;73.444;2023-06-26T00:39:51;99574.47;;;13.18;100.00
73824;BME280;62154;54.914;73.444;2023-06-26T00:42:28;99574.72;;;13.34;100.00
73824;BME280;62154;54.914;73.444;2023-06-26T00:44:56;99531.63;;;13.19;100.00
73824;BME280;62154;54.914;73.444;2023-06-26T00:47:24;99541.84;;;13.36;100.00
73824;BME280;62154;54.914;73.444;2023-06-26T00:49:52;99599.13;;;13.71;100.00
73824;BME280;62154;54.914;73.444;2023-06-26T00:52:20;99586.63;;;13.74;100.00
73824;BME280;62154;54.914;73.444;2023-06-26T00:54:48;99590.34;;;13.84;100.00
73824;BME280;62154;54.914;73.444;2023-06-26T00:57:18;99595.22;;;13.94;100.00
73824;BME280;62154;54.914;73.444;2023-06-26T00:59:45;99603.63;;;13.99;100.00
73824;BME280;62154;54.914;73.444;2023-06-26T01:02:13;99546.47;;;13.69;100.00
73824;BME280;62154;54.914;73.444;2023-06-26T01:04:48;99591.69;;;14.04;100.00
73824;BME280;62154;54.914;73.444;2023-06-26T01:07:19;99592.28;;;14.06;100.00
73824;BME280;62154;54.914;73.444;2023-06-26T01:09:49;99598.38;;;14.03;100.00
73824;BME280;62154;54.914;73.444;2023-06-26T01:12:19;99591.06;;;13.97;100.00
73824;BME280;62154;54.914;73.444;2023-06-26T01:14:49;99583.22;;;13.94;100.00
73824;BME280;62154;54.914;73.444;2023-06-26T01:17:19;99579.59;;;13.93;100.00
73824;BME280;62154;54.914;73.444;2023-06-26T01:19:48;99592.75;;;13.98;100.00
73824;BME280;62154;54.914;73.444;2023-06-26T01:25:33;99584.97;;;14.00;100.00
73824;BME280;62154;54.914;73.444;2023-06-26T01:28:11;99590.56;;;14.00;100.00
73824;BME280;62154;54.914;73.444;2023-06-26T01:30:44;99587.81;;;14.05;100.00
73824;BME280;62154;54.914;73.444;2023-06-26T01:33:13;99571.59;;;14.02;100.00
73824;BME280;62154;54.914;73.444;2023-06-26T01:35:42;99506.56;;;13.64;100.00
73824;BME280;62154;54.914;73.444;2023-06-26T01:38:14;99550.34;;;13.96;100.00
73824;BME280;62154;54.914;73.444;2023-06-26T01:40:45;99528.75;;;13.81;100.00
73824;BME280;62154;54.914;73.444;2023-06-26T01:46:12;99566.44;;;14.16;100.00
73824;BME280;62154;54.914;73.444;2023-06-26T01:49:15;99587.50;;;14.29;100.00
73824;BME280;62154;54.914;73.444;2023-06-26T01:52:21;99574.69;;;14.33;100.00
73824;BME280;62154;54.914;73.444;2023-06-26T01:54:54;99567.78;;;14.41;100.00
73824;BME280;62154;54.914;73.444;2023-06-26T01:57:23;99580.47;;;14.59;100.00
73824;BME280;62154;54.914;73.444;2023-06-26T01:59:55;99538.53;;;14.43;100.00
73824;BME280;62154;54.914;73.444;2023-06-26T02:02:24;99540.47;;;14.43;99.42
73824;BME280;62154;54.914;73.444;2023-06-26T02:04:51;99577.59;;;14.76;98.92
73824;BME280;62154;54.914;73.444;2023-06-26T02:07:19;99573.63;;;14.72;99.04
73824;BME280;62154;54.914;73.444;2023-06-26T02:09:47;99549.66;;;14.71;99.12
73824;BME280;62154;54.914;73.444;2023-06-26T02:12:15;99566.75;;;14.84;99.17
73824;BME280;62154;54.914;73.444;2023-06-26T02:14:42;99571.81;;;14.88;99.06
73824;BME280;62154;54.914;73.444;2023-06-26T02:17:10;99569.88;;;14.93;98.91
73824;BME280;62154;54.914;73.444;2023-06-26T02:19:39;99557.31;;;14.96;99.12
73824;BME280;62154;54.914;73.444;2023-06-26T02:22:14;99571.94;;;15.13;99.13
73824;BME280;62154;54.914;73.444;2023-06-26T02:24:42;99565.84;;;15.22;98.55
73824;BME280;62154;54.914;73.444;2023-06-26T02:27:10;99571.78;;;15.36;98.55
73824;BME280;62154;54.914;73.444;2023-06-26T02:29:39;99563.75;;;15.44;97.96
73824;BME280;62154;54.914;73.444;2023-06-26T02:32:10;99553.97;;;15.47;97.76
73824;BME280;62154;54.914;73.444;2023-06-26T02:34:38;99511.78;;;15.43;97.48
73824;BME280;62154;54.914;73.444;2023-06-26T02:37:07;99551.31;;;15.83;97.79
73824;BME280;62154;54.914;73.444;2023-06-26T02:39:48;99546.59;;;16.04;97.47
73824;BME280;62154;54.914;73.444;2023-06-26T02:42:18;99532.91;;;16.08;96.45
73824;BME280;62154;54.914;73.444;2023-06-26T02:44:49;99434.69;;;15.68;95.71
73824;BME280;62154;54.914;73.444;2023-06-26T02:47:17;99541.03;;;16.56;93.55
73824;BME280;62154;54.914;73.444;2023-06-26T02:49:48;99538.22;;;16.76;94.49
73824;BME280;62154;54.914;73.444;2023-06-26T02:52:16;99464.91;;;16.54;93.94
73824;BME280;62154;54.914;73.444;2023-06-26T02:54:44;99524.16;;;17.07;91.45
73824;BME280;62154;54.914;73.444;2023-06-26T02:57:13;99530.53;;;17.28;90.51
73824;BME280;62154;54.914;73.444;2023-06-26T02:59:42;99528.22;;;17.46;88.19
73824;BME280;62154;54.914;73.444;2023-06-26T03:02:11;99523.41;;;17.62;87.32
73824;BME280;62154;54.914;73.444;2023-06-26T03:04:42;99522.72;;;17.81;85.48
73824;BME280;62154;54.914;73.444;2023-06-26T03:07:13;99507.53;;;17.87;86.55
73824;BME280;62154;54.914;73.444;2023-06-26T03:09:41;99520.88;;;18.11;85.78
73824;BME280;62154;54.914;73.444;2023-06-26T03:12:10;99519.03;;;18.30;82.88
73824;BME280;62154;54.914;73.444;2023-06-26T03:14:38;99514.53;;;18.34;81.06
73824;BME280;62154;54.914;73.444;2023-06-26T03:17:05;99490.72;;;18.26;79.65
73824;BME280;62154;54.914;73.444;2023-06-26T03:19:36;99522.97;;;18.64;80.98
73824;BME280;62154;54.914;73.444;2023-06-26T03:22:20;99513.25;;;18.80;80.11
73824;BME280;62154;54.914;73.444;2023-06-26T03:24:49;99514.13;;;19.05;79.70
73824;BME280;62154;54.914;73.444;2023-06-26T03:27:16;99503.56;;;19.21;77.50
73824;BME280;62154;54.914;73.444;2023-06-26T03:29:46;99516.22;;;19.43;76.88
73824;BME280;62154;54.914;73.444;2023-06-26T03:32:14;99501.50;;;19.51;75.51
73824;BME280;62154;54.914;73.444;2023-06-26T03:34:41;99463.34;;;19.45;71.66
73824;BME280;62154;54.914;73.444;2023-06-26T03:37:09;99505.50;;;19.88;68.59
73824;BME280;62154;54.914;73.444;2023-06-26T03:39:37;99492.41;;;19.97;67.71
73824;BME280;62154;54.914;73.444;2023-06-26T03:42:05;99482.97;;;20.07;68.18
73824;BME280;62154;54.914;73.444;2023-06-26T03:44:33;99444.44;;;19.88;66.09
73824;BME280;62154;54.914;73.444;2023-06-26T03:47:01;99496.03;;;20.36;65.63
73824;BME280;62154;54.914;73.444;2023-06-26T03:49:28;99501.69;;;20.50;67.22
73824;BME280;62154;54.914;73.444;2023-06-26T03:51:56;99497.78;;;20.65;65.97
73824;BME280;62154;54.914;73.444;2023-06-26T03:54:23;99498.34;;;20.81;65.40
73824;BME280;62154;54.914;73.444;2023-06-26T03:56:51;99403.75;;;20.47;64.91
73824;BME280;62154;54.914;73.444;2023-06-26T03:59:19;99480.97;;;21.07;61.54
73824;BME280;62154;54.914;73.444;2023-06-26T04:01:46;99470.28;;;21.04;59.55
73824;BME280;62154;54.914;73.444;2023-06-26T04:04:15;99478.31;;;21.10;58.28
73824;BME280;62154;54.914;73.444;2023-06-26T04:06:42;99479.19;;;21.11;58.35
73824;BME280;62154;54.914;73.444;2023-06-26T04:09:10;99474.06;;;21.13;58.44
73824;BME280;62154;54.914;73.444;2023-06-26T04:11:38;99470.59;;;21.16;58.25
73824;BME280;62154;54.914;73.444;2023-06-26T04:14:05;99473.31;;;21.21;59.30
73824;BME280;62154;54.914;73.444;2023-06-26T04:16:33;99481.66;;;21.26;58.53
73824;BME280;62154;54.914;73.444;2023-06-26T04:19:01;99477.91;;;21.31;57.92
73824;BME280;62154;54.914;73.444;2023-06-26T04:21:30;99478.50;;;21.42;56.68
73824;BME280;62154;54.914;73.444;2023-06-26T04:23:58;99473.19;;;21.54;57.21
73824;BME280;62154;54.914;73.444;2023-06-26T04:26:26;99452.00;;;21.57;55.85
73824;BME280;62154;54.914;73.444;2023-06-26T04:28:54;99460.41;;;21.71;56.43
73824;BME280;62154;54.914;73.444;2023-06-26T04:31:22;99452.59;;;21.67;55.10
73824;BME280;62154;54.914;73.444;2023-06-26T04:33:50;99447.22;;;21.80;55.95
73824;BME280;62154;54.914;73.444;2023-06-26T04:36:18;99447.38;;;21.97;56.15
73824;BME280;62154;54.914;73.444;2023-06-26T04:38:46;99449.75;;;22.04;54.50
73824;BME280;62154;54.914;73.444;2023-06-26T04:41:15;99443.00;;;22.14;54.44
73824;BME280;62154;54.914;73.444;2023-06-26T04:43:42;99438.56;;;22.22;54.99
73824;BME280;62154;54.914;73.444;2023-06-26T04:46:10;99443.66;;;22.34;54.26
73824;BME280;62154;54.914;73.444;2023-06-26T04:48:38;99435.28;;;22.42;53.33
73824;BME280;62154;54.914;73.444;2023-06-26T04:51:05;99433.13;;;22.48;52.86
73824;BME280;62154;54.914;73.444;2023-06-26T04:53:33;99430.22;;;22.62;52.76
73824;BME280;62154;54.914;73.444;2023-06-26T04:56:01;99358.50;;;22.40;52.80
73824;BME280;62154;54.914;73.444;2023-06-26T04:58:30;64066.41;;;-147.71;100.00
73824;BME280;62154;54.914;73.444;2023-06-26T05:00:57;64066.41;;;-147.71;100.00
73824;BME280;62154;54.914;73.444;2023-06-26T05:03:25;64066.41;;;-147.71;100.00
73824;BME280;62154;54.914;73.444;2023-06-26T05:05:53;64066.41;;;-147.71;100.00
73824;BME280;62154;54.914;73.444;2023-06-26T05:08:23;64066.41;;;-147.71;100.00
73824;BME280;62154;54.914;73.444;2023-06-26T05:10:53;64066.41;;;-147.71;100.00
73824;BME280;62154;54.914;73.444;2023-06-26T05:13:25;64066.41;;;-147.71;100.00
73824;BME280;62154;54.914;73.444;2023-06-26T05:15:53;64066.41;;;-147.71;100.00
73824;BME280;62154;54.914;73.444;2023-06-26T05:18:21;64066.41;;;-147.71;100.00
73824;BME280;62154;54.914;73.444;2023-06-26T05:20:49;99358.50;;;22.40;52.80
73824;BME280;62154;54.914;73.444;2023-06-26T05:23:17;99409.75;;;23.89;45.31
73824;BME280;62154;54.914;73.444;2023-06-26T05:25:46;99402.44;;;23.97;47.00
73824;BME280;62154;54.914;73.444;2023-06-26T05:28:14;99396.09;;;24.00;47.13
73824;BME280;62154;54.914;73.444;2023-06-26T05:30:42;99402.91;;;24.08;47.12
73824;BME280;62154;54.914;73.444;2023-06-26T05:33:11;64066.41;;;-147.71;100.00
73824;BME280;62154;54.914;73.444;2023-06-26T05:35:41;64066.41;;;-147.71;100.00
73824;BME280;62154;54.914;73.444;2023-06-26T05:38:10;64066.41;;;-147.71;100.00
73824;BME280;62154;54.914;73.444;2023-06-26T05:40:38;64066.41;;;-147.71;100.00
73824;BME280;62154;54.914;73.444;2023-06-26T05:43:10;64066.41;;;-147.71;100.00
73824;BME280;62154;54.914;73.444;2023-06-26T05:45:39;64066.41;;;-147.71;100.00
73824;BME280;62154;54.914;73.444;2023-06-26T05:48:07;64066.41;;;-147.71;100.00
73824;BME280;62154;54.914;73.444;2023-06-26T05:50:36;64066.41;;;-147.71;100.00
73824;BME280;62154;54.914;73.444;2023-06-26T05:53:04;64066.41;;;-147.71;100.00
73824;BME280;62154;54.914;73.444;2023-06-26T05:55:32;99402.91;;;24.08;47.12
73824;BME280;62154;54.914;73.444;2023-06-26T05:58:02;99388.78;;;25.03;45.51
73824;BME280;62154;54.914;73.444;2023-06-26T06:00:30;99377.84;;;24.92;44.34
73824;BME280;62154;54.914;73.444;2023-06-26T06:02:58;99386.84;;;24.95;45.01
73824;BME280;62154;54.914;73.444;2023-06-26T06:05:25;99386.25;;;25.10;44.26
73824;BME280;62154;54.914;73.444;2023-06-26T06:07:53;99387.38;;;25.18;44.10
73824;BME280;62154;54.914;73.444;2023-06-26T06:10:21;99363.34;;;25.15;44.73
73824;BME280;62154;54.914;73.444;2023-06-26T06:12:48;64066.41;;;-147.71;100.00
73824;BME280;62154;54.914;73.444;2023-06-26T06:15:16;99375.41;;;25.33;42.02
73824;BME280;62154;54.914;73.444;2023-06-26T06:17:44;99383.09;;;25.33;42.64
73824;BME280;62154;54.914;73.444;2023-06-26T06:20:12;64066.41;;;-147.71;100.00
73824;BME280;62154;54.914;73.444;2023-06-26T06:22:40;64066.41;;;-147.71;100.00
73824;BME280;62154;54.914;73.444;2023-06-26T06:25:08;99378.72;;;25.44;42.58
73824;BME280;62154;54.914;73.444;2023-06-26T06:27:36;99376.56;;;25.41;41.98
73824;BME280;62154;54.914;73.444;2023-06-26T06:30:03;64066.41;;;-147.71;100.00
73824;BME280;62154;54.914;73.444;2023-06-26T06:32:33;99364.88;;;25.43;41.85
73824;BME280;62154;54.914;73.444;2023-06-26T06:35:01;99367.41;;;25.35;42.36
73824;BME280;62154;54.914;73.444;2023-06-26T06:37:39;99317.56;;;25.04;41.81
73824;BME280;62154;54.914;73.444;2023-06-26T06:40:11;64066.41;;;-147.71;100.00
73824;BME280;62154;54.914;73.444;2023-06-26T06:42:40;64066.41;;;-147.71;100.00
73824;BME280;62154;54.914;73.444;2023-06-26T06:45:08;64066.41;;;-147.71;100.00
73824;BME280;62154;54.914;73.444;2023-06-26T06:47:35;64066.41;;;-147.71;100.00
73824;BME280;62154;54.914;73.444;2023-06-26T06:50:03;64066.41;;;-147.71;100.00
73824;BME280;62154;54.914;73.444;2023-06-26T06:52:39;64066.41;;;-147.71;100.00
73824;BME280;62154;54.914;73.444;2023-06-26T06:55:07;64066.41;;;-147.71;100.00
73824;BME280;62154;54.914;73.444;2023-06-26T06:57:37;64066.41;;;-147.71;100.00
73824;BME280;62154;54.914;73.444;2023-06-26T07:00:10;64066.41;;;-147.71;100.00
73824;BME280;62154;54.914;73.444;2023-06-26T07:02:39;64066.41;;;-147.71;100.00
73824;BME280;62154;54.914;73.444;2023-06-26T07:05:07;64066.41;;;-147.71;100.00
73824;BME280;62154;54.914;73.444;2023-06-26T07:07:37;64066.41;;;-147.71;100.00
73824;BME280;62154;54.914;73.444;2023-06-26T07:10:10;64066.41;;;-147.71;100.00
73824;BME280;62154;54.914;73.444;2023-06-26T07:12:38;64066.41;;;-147.71;100.00
73824;BME280;62154;54.914;73.444;2023-06-26T07:15:06;64066.41;;;-147.71;100.00
73824;BME280;62154;54.914;73.444;2023-06-26T07:17:35;64066.41;;;-147.71;100.00
73824;BME280;62154;54.914;73.444;2023-06-26T07:20:05;64066.41;;;-147.71;100.00
73824;BME280;62154;54.914;73.444;2023-06-26T07:22:38;64066.41;;;-147.71;100.00
73824;BME280;62154;54.914;73.444;2023-06-26T07:25:06;64066.41;;;-147.71;100.00
73824;BME280;62154;54.914;73.444;2023-06-26T07:27:40;64066.41;;;-147.71;100.00
73824;BME280;62154;54.914;73.444;2023-06-26T07:30:09;64066.41;;;-147.71;100.00
73824;BME280;62154;54.914;73.444;2023-06-26T07:32:37;64066.41;;;-147.71;100.00
73824;BME280;62154;54.914;73.444;2023-06-26T07:35:05;64066.41;;;-147.71;100.00
73824;BME280;62154;54.914;73.444;2023-06-26T07:37:33;64066.41;;;-147.71;100.00
73824;BME280;62154;54.914;73.444;2023-06-26T07:40:00;64066.41;;;-147.71;100.00
73824;BME280;62154;54.914;73.444;2023-06-26T07:42:29;64066.41;;;-147.71;100.00
73824;BME280;62154;54.914;73.444;2023-06-26T07:44:56;64066.41;;;-147.71;100.00
73824;BME280;62154;54.914;73.444;2023-06-26T07:47:24;64066.41;;;-147.71;100.00
73824;BME280;62154;54.914;73.444;2023-06-26T07:49:51;64066.41;;;-147.71;100.00
73824;BME280;62154;54.914;73.444;2023-06-26T07:52:19;64066.41;;;-147.71;100.00
73824;BME280;62154;54.914;73.444;2023-06-26T07:54:46;64066.41;;;-147.71;100.00
73824;BME280;62154;54.914;73.444;2023-06-26T07:57:14;64066.41;;;-147.71;100.00
73824;BME280;62154;54.914;73.444;2023-06-26T07:59:41;64066.41;;;-147.71;100.00
73824;BME280;62154;54.914;73.444;2023-06-26T08:02:08;64066.41;;;-147.71;100.00
73824;BME280;62154;54.914;73.444;2023-06-26T08:04:36;64066.41;;;-147.71;100.00
73824;BME280;62154;54.914;73.444;2023-06-26T08:07:04;64066.41;;;-147.71;100.00
73824;BME280;62154;54.914;73.444;2023-06-26T08:09:32;64066.41;;;-147.71;100.00
73824;BME280;62154;54.914;73.444;2023-06-26T08:12:00;64066.41;;;-147.71;100.00
73824;BME280;62154;54.914;73.444;2023-06-26T08:14:27;64066.41;;;-147.71;100.00
73824;BME280;62154;54.914;73.444;2023-06-26T08:16:55;64066.41;;;-147.71;100.00
73824;BME280;62154;54.914;73.444;2023-06-26T08:19:22;64066.41;;;-147.71;100.00
73824;BME280;62154;54.914;73.444;2023-06-26T08:21:50;64066.41;;;-147.71;100.00
73824;BME280;62154;54.914;73.444;2023-06-26T08:24:17;64066.41;;;-147.71;100.00
73824;BME280;62154;54.914;73.444;2023-06-26T08:26:48;64066.41;;;-147.71;100.00
73824;BME280;62154;54.914;73.444;2023-06-26T08:29:15;64066.41;;;-147.71;100.00
73824;BME280;62154;54.914;73.444;2023-06-26T08:31:43;64066.41;;;-147.71;100.00
73824;BME280;62154;54.914;73.444;2023-06-26T08:34:11;64066.41;;;-147.71;100.00
73824;BME280;62154;54.914;73.444;2023-06-26T08:36:40;64066.41;;;-147.71;100.00
73824;BME280;62154;54.914;73.444;2023-06-26T08:39:07;64066.41;;;-147.71;100.00
73824;BME280;62154;54.914;73.444;2023-06-26T08:41:38;64066.41;;;-147.71;100.00
73824;BME280;62154;54.914;73.444;2023-06-26T08:44:06;64066.41;;;-147.71;100.00
73824;BME280;62154;54.914;73.444;2023-06-26T08:46:33;64066.41;;;-147.71;100.00
73824;BME280;62154;54.914;73.444;2023-06-26T08:49:08;64066.41;;;-147.71;100.00
73824;BME280;62154;54.914;73.444;2023-06-26T08:51:52;64066.41;;;-147.71;100.00
73824;BME280;62154;54.914;73.444;2023-06-26T08:54:34;64066.41;;;-147.71;100.00
73824;BME280;62154;54.914;73.444;2023-06-26T08:57:08;64066.41;;;-147.71;100.00
73824;BME280;62154;54.914;73.444;2023-06-26T08:59:43;64066.41;;;-147.71;100.00
73824;BME280;62154;54.914;73.444;2023-06-26T09:02:18;64066.41;;;-147.71;100.00
73824;BME280;62154;54.914;73.444;2023-06-26T09:04:48;64066.41;;;-147.71;100.00
73824;BME280;62154;54.914;73.444;2023-06-26T09:07:18;64066.41;;;-147.71;100.00
73824;BME280;62154;54.914;73.444;2023-06-26T09:09:46;64066.41;;;-147.71;100.00
73824;BME280;62154;54.914;73.444;2023-06-26T09:12:13;64066.41;;;-147.71;100.00
73824;BME280;62154;54.914;73.444;2023-06-26T09:14:41;64066.41;;;-147.71;100.00
73824;BME280;62154;54.914;73.444;2023-06-26T09:17:09;64066.41;;;-147.71;100.00
73824;BME280;62154;54.914;73.444;2023-06-26T09:19:37;64066.41;;;-147.71;100.00
73824;BME280;62154;54.914;73.444;2023-06-26T09:22:14;64066.41;;;-147.71;100.00
73824;BME280;62154;54.914;73.444;2023-06-26T09:24:50;64066.41;;;-147.71;100.00
73824;BME280;62154;54.914;73.444;2023-06-26T09:27:18;64066.41;;;-147.71;100.00
73824;BME280;62154;54.914;73.444;2023-06-26T09:29:50;64066.41;;;-147.71;100.00
73824;BME280;62154;54.914;73.444;2023-06-26T09:32:18;64066.41;;;-147.71;100.00
73824;BME280;62154;54.914;73.444;2023-06-26T09:34:45;64066.41;;;-147.71;100.00
73824;BME280;62154;54.914;73.444;2023-06-26T09:37:12;64066.41;;;-147.71;100.00
73824;BME280;62154;54.914;73.444;2023-06-26T09:39:43;64066.41;;;-147.71;100.00
73824;BME280;62154;54.914;73.444;2023-06-26T09:42:16;64066.41;;;-147.71;100.00
73824;BME280;62154;54.914;73.444;2023-06-26T09:44:45;64066.41;;;-147.71;100.00
73824;BME280;62154;54.914;73.444;2023-06-26T09:47:21;64066.41;;;-147.71;100.00
73824;BME280;62154;54.914;73.444;2023-06-26T09:49:51;64066.41;;;-147.71;100.00
73824;BME280;62154;54.914;73.444;2023-06-26T09:52:26;64066.41;;;-147.71;100.00
73824;BME280;62154;54.914;73.444;2023-06-26T09:55:10;64066.41;;;-147.71;100.00
73824;BME280;62154;54.914;73.444;2023-06-26T09:57:39;64066.41;;;-147.71;100.00
73824;BME280;62154;54.914;73.444;2023-06-26T10:00:08;64066.41;;;-147.71;100.00
73824;BME280;62154;54.914;73.444;2023-06-26T10:02:41;64066.41;;;-147.71;100.00
73824;BME280;62154;54.914;73.444;2023-06-26T10:05:11;64066.41;;;-147.71;100.00
73824;BME280;62154;54.914;73.444;2023-06-26T10:07:39;64066.41;;;-147.71;100.00
73824;BME280;62154;54.914;73.444;2023-06-26T10:10:08;64066.41;;;-147.71;100.00
73824;BME280;62154;54.914;73.444;2023-06-26T10:12:36;64066.41;;;-147.71;100.00
73824;BME280;62154;54.914;73.444;2023-06-26T10:15:03;64066.41;;;-147.71;100.00
73824;BME280;62154;54.914;73.444;2023-06-26T10:17:35;64066.41;;;-147.71;100.00
73824;BME280;62154;54.914;73.444;2023-06-26T10:20:03;64066.41;;;-147.71;100.00
73824;BME280;62154;54.914;73.444;2023-06-26T10:22:41;64066.41;;;-147.71;100.00
73824;BME280;62154;54.914;73.444;2023-06-26T10:25:23;64066.41;;;-147.71;100.00
73824;BME280;62154;54.914;73.444;2023-06-26T10:27:56;64066.41;;;-147.71;100.00
73824;BME280;62154;54.914;73.444;2023-06-26T10:30:27;64066.41;;;-147.71;100.00
73824;BME280;62154;54.914;73.444;2023-06-26T10:32:57;64066.41;;;-147.71;100.00
73824;BME280;62154;54.914;73.444;2023-06-26T10:35:25;64066.41;;;-147.71;100.00
73824;BME280;62154;54.914;73.444;2023-06-26T10:38:01;64066.41;;;-147.71;100.00
73824;BME280;62154;54.914;73.444;2023-06-26T10:40:41;64066.41;;;-147.71;100.00
73824;BME280;62154;54.914;73.444;2023-06-26T10:43:09;64066.41;;;-147.71;100.00
73824;BME280;62154;54.914;73.444;2023-06-26T10:45:43;64066.41;;;-147.71;100.00
73824;BME280;62154;54.914;73.444;2023-06-26T10:48:14;64066.41;;;-147.71;100.00
73824;BME280;62154;54.914;73.444;2023-06-26T10:50:42;64066.41;;;-147.71;100.00
73824;BME280;62154;54.914;73.444;2023-06-26T10:53:23;64066.41;;;-147.71;100.00
73824;BME280;62154;54.914;73.444;2023-06-26T10:56:04;64066.41;;;-147.71;100.00
73824;BME280;62154;54.914;73.444;2023-06-26T11:04:09;64066.41;;;-147.71;100.00
73824;BME280;62154;54.914;73.444;2023-06-26T11:06:38;64066.41;;;-147.71;100.00
73824;BME280;62154;54.914;73.444;2023-06-26T11:14:27;64066.41;;;-147.71;100.00
73824;BME280;62154;54.914;73.444;2023-06-26T11:16:57;64066.41;;;-147.71;100.00
73824;BME280;62154;54.914;73.444;2023-06-26T11:19:26;64066.41;;;-147.71;100.00
73824;BME280;62154;54.914;73.444;2023-06-26T11:21:59;64066.41;;;-147.71;100.00
73824;BME280;62154;54.914;73.444;2023-06-26T11:24:28;64066.41;;;-147.71;100.00
73824;BME280;62154;54.914;73.444;2023-06-26T11:27:02;64066.41;;;-147.71;100.00
73824;BME280;62154;54.914;73.444;2023-06-26T11:29:30;64066.41;;;-147.71;100.00
73824;BME280;62154;54.914;73.444;2023-06-26T11:32:02;64066.41;;;-147.71;100.00
73824;BME280;62154;54.914;73.444;2023-06-26T11:34:33;64066.41;;;-147.71;100.00
73824;BME280;62154;54.914;73.444;2023-06-26T11:37:11;64066.41;;;-147.71;100.00
73824;BME280;62154;54.914;73.444;2023-06-26T11:39:41;64066.41;;;-147.71;100.00
73824;BME280;62154;54.914;73.444;2023-06-26T11:42:10;64066.41;;;-147.71;100.00
73824;BME280;62154;54.914;73.444;2023-06-26T11:44:42;64066.41;;;-147.71;100.00
73824;BME280;62154;54.914;73.444;2023-06-26T11:47:18;64066.41;;;-147.71;100.00
73824;BME280;62154;54.914;73.444;2023-06-26T11:49:48;64066.41;;;-147.71;100.00
73824;BME280;62154;54.914;73.444;2023-06-26T11:52:16;64066.41;;;-147.71;100.00
73824;BME280;62154;54.914;73.444;2023-06-26T11:54:45;64066.41;;;-147.71;100.00
73824;BME280;62154;54.914;73.444;2023-06-26T11:57:16;64066.41;;;-147.71;100.00
73824;BME280;62154;54.914;73.444;2023-06-26T11:59:44;64066.41;;;-147.71;100.00
73824;BME280;62154;54.914;73.444;2023-06-26T12:02:13;64066.41;;;-147.71;100.00
73824;BME280;62154;54.914;73.444;2023-06-26T12:04:42;64066.41;;;-147.71;100.00
73824;BME280;62154;54.914;73.444;2023-06-26T12:07:13;64066.41;;;-147.71;100.00
73824;BME280;62154;54.914;73.444;2023-06-26T12:09:46;64066.41;;;-147.71;100.00
73824;BME280;62154;54.914;73.444;2023-06-26T12:12:17;64066.41;;;-147.71;100.00
73824;BME280;62154;54.914;73.444;2023-06-26T12:14:45;64066.41;;;-147.71;100.00
73824;BME280;62154;54.914;73.444;2023-06-26T12:17:13;64066.41;;;-147.71;100.00
73824;BME280;62154;54.914;73.444;2023-06-26T12:19:45;64066.41;;;-147.71;100.00
73824;BME280;62154;54.914;73.444;2023-06-26T12:22:17;64066.41;;;-147.71;100.00
73824;BME280;62154;54.914;73.444;2023-06-26T12:24:47;64066.41;;;-147.71;100.00
73824;BME280;62154;54.914;73.444;2023-06-26T12:27:17;64066.41;;;-147.71;100.00
73824;BME280;62154;54.914;73.444;2023-06-26T12:29:52;64066.41;;;-147.71;100.00
73824;BME280;62154;54.914;73.444;2023-06-26T12:32:23;64066.41;;;-147.71;100.00
73824;BME280;62154;54.914;73.444;2023-06-26T12:34:52;64066.41;;;-147.71;100.00
73824;BME280;62154;54.914;73.444;2023-06-26T12:37:20;64066.41;;;-147.71;100.00
73824;BME280;62154;54.914;73.444;2023-06-26T12:39:55;64066.41;;;-147.71;100.00
73824;BME280;62154;54.914;73.444;2023-06-26T12:42:26;64066.41;;;-147.71;100.00
73824;BME280;62154;54.914;73.444;2023-06-26T12:44:54;64066.41;;;-147.71;100.00
73824;BME280;62154;54.914;73.444;2023-06-26T12:47:29;64066.41;;;-147.71;100.00
73824;BME280;62154;54.914;73.444;2023-06-26T12:49:58;64066.41;;;-147.71;100.00
73824;BME280;62154;54.914;73.444;2023-06-26T12:52:25;64066.41;;;-147.71;100.00
73824;BME280;62154;54.914;73.444;2023-06-26T12:54:54;64066.41;;;-147.71;100.00
73824;BME280;62154;54.914;73.444;2023-06-26T12:57:22;64066.41;;;-147.71;100.00
73824;BME280;62154;54.914;73.444;2023-06-26T12:59:50;64066.41;;;-147.71;100.00
73824;BME280;62154;54.914;73.444;2023-06-26T13:02:17;64066.41;;;-147.71;100.00
73824;BME280;62154;54.914;73.444;2023-06-26T13:04:45;64066.41;;;-147.71;100.00